Malaysia Virtual Airlines Airport Information Service

Kuching Airport

ICAO: WBGG Country: Malaysia
Latitude: 1.4847 Longitude: 110.347
Latest Arrival : MH2803 (WBGR-WBGG) Latest Departure : MH2806 (WBGG-WBKK)


WX CaptureLIVE
Data provided by noaa.gov | Fetched at 06:54:19

METAR : WBGG 160630Z VRB06KT 9999 BKN018 33/26 Q1008 NOSIG

TAF : WBGG 160500Z 1606/1706 32006KT 9999 SCT020 TEMPO 1607/1611 3000 TSRA FEW015CB SCT016


Runway Data for WBGG
Data provided by openaviationdata.com

Runway ID Mag Var Hdg Length Elevation Surface ILS Freq ILS Id ILS Slope
7 1 67° 8063 ft 89 ft Asphalt -- -- --
25 1 247° 8063 ft 89 ft Asphalt 110.3 IKG 3

Kuching Airport, Malaysia
Use only for reference purposes



Not for navigational purposes.